Vercelli (VC) - "1° Via Francigena Half Marathon"
  Pett.
Tempo VelocitÓ
KM/Ora
Distacco dal primo Sex Cat Societa Pos
/Cat
Totale /KM Tempo KM
1 355 ANNANI ADIL 1:08:13 3' 14" 18,556 M TM REGGIO EVENT'S 1
2 354 NDAYISENGA PATRICK 1:10:19 3' 19" 18,002 2' 6" 0,630 M MM35 ASSINDUSTRIA PADOVA 1
3 166 MELIANI ABDEL AZIZ 1:12:25 3' 25" 17,480 4' 12" 1,224 M MM35 AVIS GAMBOLO' 2
4 379 CURRELI SERGIO 1:14:01 3' 30" 17,102 5' 48" 1,653 M MM35 RADICI RE CASTELLO 3
5 363 DI GIROLAMO STEFANO 1:17:58 3' 41" 16,235 9' 45" 2,638 M TM ATL.RICCARDI MILANO 2
6 351   RINALDO MAURA 1:19:01 3' 44" 16,020 10' 48" 2,884 F SF35 JAKY TECH ATLETICA APUANA 1
7 435 DE VINCENZO GIANCARLO 1:19:15 3' 45" 15,972 11' 2" 2,937 M TM APROCIS RUNNER TEAM 3
8 249 BRUNETTI DAVIDE 1:19:21 3' 45" 15,952 11' 8" 2,960 M TM A.S.GAGLIANICO 1974 4
9 413 ARAFI KHADIJA 1:19:49 3' 46" 15,859 11' 36" 3,066 F ? POD.TRANESE UN.INDUSTRIALE 1
10 349 RUZZON LUCIANO 1:20:37 3' 49" 15,702 12' 24" 3,245 M MM55 G.S.A POLLONE 1
11 255 TUCCI ANDREA 1:20:56 3' 50" 15,640 12' 43" 3,315 M MM40 G.S. MARCIATORI DESIO 1
12 224 SABA MICHELE 1:21:15 3' 51" 15,579 13' 2" 3,384 M MM35 POL.DIL.S.ORSO AOSTA 4
13 323 DE NILE MARIO 1:21:24 3' 51" 15,551 13' 11" 3,417 M MM40 GS SPLENDOR COSSATO 2
14 352 DI SESSA TIZIANA 1:21:47 3' 52" 15,478 13' 34" 3,500 F ? JAKY TECH ATLETICA APUANA 2
15 122 FAZZARI BRUNO 1:21:50 3' 52" 15,468 13' 37" 3,510 M MM35 G.P.MIRALAGO 5
16 143 MASCOLO HERBERT 1:21:50 3' 52" 15,468 13' 37" 3,510 M TM LIBERO 5
17 402 CANTANNA FABIO 1:21:51 3' 52" 15,465 13' 38" 3,514 M TM PODISTICA NONE 6
18 217 MAIANDI LORENZO 1:22:14 3' 53" 15,393 14' 1" 3,596 M MM45 ATL. VERCELLI '78 1
19 347 COSTA CARLO 1:22:15 3' 53" 15,390 14' 2" 3,600 M MM40 LIBERO 3
20 390 SCALCON NADIR 1:22:22 3' 54" 15,368 14' 9" 3,624 M MM35 GS EMENEGILDO ZEGNA 6
21 267 VENTURELLI FABIO 1:22:42 3' 55" 15,306 14' 29" 3,695 M MM40 SAI FR. BIANCHE ALESSANDRIA 4
22 209 GILARDINO PAOLO 1:22:50 3' 55" 15,282 14' 37" 3,723 M MM45 UNIONE GIOVANE BIELLA 2
23 265 SIRIO GIOVANNI 1:22:54 3' 55" 15,269 14' 41" 3,737 M MM45 SAI FR. BIANCHE ALESSANDRIA 3
24 146 CESANI MARCO 1:23:24 3' 57" 15,178 15' 11" 3,841 M MM45 AVIS VIGEVANO-GRAVELLONA 4
25 418 ROSSI ROBERTO 1:23:35 3' 57" 15,144 15' 22" 3,879 M MM45 ASD GRUPPO AMICI CORSA 5
26 236 FUSE' GIUSEPPE 1:23:36 3' 57" 15,141 15' 23" 3,882 M MM45 ATL. 99 VITTUONE 6
27 278 VERNA ALFREDO 1:23:40 3' 57" 15,129 15' 27" 3,896 M MM45 LIBERO 7
28 320 AGRESTI GIUSEPPE 1:23:43 3' 58" 15,120 15' 30" 3,906 M MM45 POL.DIMICA POTENTER VIMERCATE 8
29 432 UZEGA ANTONIO 1:23:54 3' 58" 15,087 15' 41" 3,944 M MM40 RUNNINGSARONNO 5
30 327 GIOVANNINI LUCA 1:24:03 3' 59" 15,060 15' 50" 3,974 M MM35 APD PIETRO MICCA 7
31 192 NOMINELLI FERRUCCIO 1:24:06 3' 59" 15,051 15' 53" 3,984 M MM50 ATL. GALLIATE 1
32 387 PIACENTINO FEDERICO 1:24:07 3' 59" 15,048 15' 54" 3,988 M TM CANAVESE 2005 7
33 281 BOLLO FEDERICO 1:24:21 3' 59" 15,007 16' 8" 4,035 M TM ATL. VERCELLI '78 8
34 90 CAPPUCCIO ANGELO 1:24:27 4' 0" 14,989 16' 14" 4,055 M MM35 ATLETICA SANTHIA' 8
35 322 TASCA GIULIO 1:24:55 4' 1" 14,907 16' 42" 4,149 M MM35 GS SPLENDOR COSSATO 9
36 186 ADELGHI DANIELE 1:25:02 4' 1" 14,886 16' 49" 4,172 M MM40 S.E.V.VALMADRERA 6
37 399 MARANGONI MARCO 1:25:27 4' 3" 14,814 17' 14" 4,255 M MM35 US ACLI GIURIATI 10
38 397 DELLA CHA' ANDREA 1:25:27 4' 3" 14,814 17' 14" 4,255 M MM40 CITTA' DI GENOVA 7
39 266 ZIONI ALBERTO 1:25:41 4' 3" 14,773 17' 28" 4,301 M MM40 SAI FR. BIANCHE ALESSANDRIA 8
40 263 MUNGIGUERRA CORRADO 1:25:49 4' 4" 14,750 17' 36" 4,327 M TM SAI FR. BIANCHE ALESSANDRIA 9
41 423 RAINERI LUCA 1:25:49 4' 4" 14,750 17' 36" 4,327 M TM GS CASTELLANIA 10
42 329 CANAZZA GIOVANNI 1:25:53 4' 4" 14,739 17' 40" 4,340 M MM50 TEAM ATL.MERCURIO NOVARA 2
43 193 MASCARELLO BRUNO 1:26:10 4' 5" 14,690 17' 57" 4,395 M MM55 G.S.R.FERRERO 2
44 235 MARIN FRANCESCA 1:26:26 4' 5" 14,645 18' 13" 4,446 F TF AMC 1
45 338 MAGNANI SIMONETTA 1:26:27 4' 5" 14,642 18' 14" 4,450 F MF35 CUS PARMA 1
46 178 CALGARO MASSIMO 1:26:28 4' 5" 14,639 18' 15" 4,453 M MM45 ATL. VERCELLI '78 9
47 171 GALUPPINI GIAN GUIDO 1:26:38 4' 6" 14,611 18' 25" 4,485 M MM40 EUROATLETICA 2002 9
48 175 PERON GIANFRANCO 1:26:39 4' 6" 14,608 18' 26" 4,488 M MM45 ATL.S.MARCO U.S.ACLI 10
49 248 BERGANTI MAURIZIO 1:26:43 4' 6" 14,597 18' 30" 4,501 M MM40 US ACLI SCALO VOGHERA 10
50 382 CIAPPARELLI ROBERTO 1:26:51 4' 7" 14,575 18' 38" 4,526 M MM40 GP MIRALAGO 11
51 313 CABRINO LUIGI 1:26:58 4' 7" 14,555 18' 45" 4,549 M TM U.S.SANFRONT 11
52 16 CESANA FERDINANDO 1:26:59 4' 7" 14,552 18' 46" 4,552 M MM45 CORNO MARCO ITALIA 11
53 258 AROSIO GIANNI 1:27:08 4' 7" 14,527 18' 55" 4,580 M MM40 G.S. MARCIATORI DESIO 12
54 94 TAFFI STEFANO 1:27:12 4' 7" 14,516 18' 59" 4,593 M MM40 ATLETICA MALNATE 13
55 277 RODILARDI STEFANO 1:27:18 4' 8" 14,500 19' 5" 4,612 M MM40 G.S.SPLENDOR COSSATO 14
56 254 SCAFUTI RENATO 1:27:22 4' 8" 14,489 19' 9" 4,624 M MM35 G.S. MARCIATORI DESIO 11
57 128 TRABATTONI MICHELE 1:27:44 4' 9" 14,428 19' 31" 4,693 M MM40 G.S.MARENGO M 15
58 424 RAINERI GIOVANNI 1:27:45 4' 9" 14,425 19' 32" 4,696 M MM45 GS CASTELLANIA 12
59 144 GRISOTTI GIUSEPPE 1:27:49 4' 9" 14,414 19' 36" 4,709 M MM35 AVIS VIGEVANO-GRAVELLONA 12
60 176 CADEI NICOLA 1:28:11 4' 10" 14,354 19' 58" 4,777 M MM40 ROAD RUNNERS CLUB MILANO 16
61 380 NANNONI ANTONIO 1:28:13 4' 10" 14,349 20' 4,783 M MM45 G.S.S.MARTINO 13
62 321 MANCASSOLA DORIANO 1:28:30 4' 11" 14,303 20' 17" 4,835 M MM40 ATLETICA TRECATE 17
63 309 GALLAZZI ANGELO 1:29:16 4' 13" 14,180 21' 3" 4,975 M MM40 ATL.S.MARCO BUSTO ARSIZIO 18
64 395 VAGNONE ENRICO 1:29:16 4' 13" 14,180 21' 3" 4,975 M MM50 SPORT CITY 3
65 199 AMANDOLA FABIO 1:29:20 4' 14" 14,170 21' 7" 4,987 M TM U.S.COSTIGLIOLE 12
66 109 DI NICOLA MASSIMO 1:29:20 4' 14" 14,170 21' 7" 4,987 M MM40 TURIN MARATHON 19
67 396 TIOZZO FABRIZIO 1:29:25 4' 14" 14,156 21' 12" 5,002 M MM50 GS VOLONTARI MORTARA 4
68 299 PRAVETTONI LUCA 1:29:37 4' 14" 14,125 21' 24" 5,038 M TM U.S. NERVIANESE 1919 13
69 99 SPANO' ANTONIO 1:29:38 4' 14" 14,122 21' 25" 5,041 M MM40 ATLETICA CASTELL'ALFERO 20
70 252 DODERO MAURIZIO 1:29:39 4' 14" 14,120 21' 26" 5,044 M MM40 G.S. MARCIATORI DESIO 21
71 60 ANGELERI PAOLO 1:29:52 4' 15" 14,086 21' 39" 5,083 M MM45 CEDAS LANCIA VERRONE 14
72 138 ZANFORLIN DEVIS 1:29:54 4' 15" 14,080 21' 41" 5,088 M TM AVIS VIGEVANO-GRAVELLONA 14
73 339 MODERNELLI DANIELE 1:30:03 4' 16" 14,057 21' 50" 5,115 M MM50 CUS PARMA 5
74 374 TARGA LUIGI 1:30:09 4' 16" 14,041 21' 56" 5,133 M MM45 GS EMENEGILDO ZEGNA 15
75 332 BARCARIOL ARNALDO 1:30:16 4' 16" 14,023 22' 3" 5,153 M MM45 ONDA VERDE ATL.TEAM 16
76 95 RIVA MASSIMO 1:30:17 4' 16" 14,021 22' 4" 5,156 M MM45 ATLETICA MALNATE 17
77 290 GALBIATI BRUNO 1:30:23 4' 17" 14,005 22' 10" 5,174 M MM50 ASD GR. PODISTI ALBESI 6
78 204 TOMASI MASSIMO 1:30:29 4' 17" 13,990 22' 16" 5,192 M MM35 TEAM 2000 13
79 225 FERRARIS ROBERTO 1:30:39 4' 17" 13,964 22' 26" 5,221 M MM40 G.P.TRINESE 22
80 433 LORO MATTEO 1:31:02 4' 18" 13,905 22' 49" 5,288 M MM40 ERMENEGILDO ZEGNA 23
81 431 COMOGLIO GIULIANO 1:31:04 4' 18" 13,900 22' 51" 5,294 M MM45 GS ERMENEGILDO ZEGNA 18
82 139 ARRIGONI GIUSEPPE 1:31:07 4' 19" 13,892 22' 54" 5,302 M MM40 TURIN MARATHON 24
83 42 LELLERO SERGIO 1:31:23 4' 19" 13,852 23' 10" 5,348 M MM45 ROAD RUNNERS CLUB MILANO 19
84 422 VERGA GIUSY 1:31:26 4' 20" 13,844 23' 13" 5,357 F MF45 AZZURRA GARBAGNATE 1
85 226 SALINO STEFANO 1:31:38 4' 20" 13,814 23' 25" 5,391 M MM40 ATL.TRECATE 25
86 173 DIVIGNANI CLAUDIO 1:31:39 4' 20" 13,811 23' 26" 5,394 M MM35 G.S.GRAVELLONA VCO 14
87 247 PIROVANO ERMINIO 1:31:41 4' 20" 13,806 23' 28" 5,400 M MM50 A.L.S.\CREMELLA 7
88 368 VAIROS LINO 1:31:43 4' 20" 13,801 23' 30" 5,406 M TM ATLETIC TEAM 2000 15
89 77 SARTI STEFANO 1:31:44 4' 20" 13,799 23' 31" 5,408 M MM35 AMATORI MASTER NOVARA 15
90 38 RAMPONI ALBERTO 1:31:44 4' 20" 13,799 23' 31" 5,408 M MM45 PODISTICA MELE 20
91 203 GISONDI FRANCO 1:31:56 4' 21" 13,769 23' 43" 5,443 M MM35 PODISTICA GATE 16
92 126 MURARO MAURIZIO 1:32:02 4' 21" 13,754 23' 49" 5,460 M MM35 EQUIPE OLEGGIO 2000 17
93 344 MARAFANTE FEDERICO 1:32:07 4' 21" 13,741 23' 54" 5,474 M TM ATLETICA TRECATE 16
94 230 COLLAZIO GIOVANNI 1:32:09 4' 22" 13,737 23' 56" 5,479 M MM35 ATL.VIRTUS SENAGO 18
95 106 ARDUINO CLAUDIO 1:32:18 4' 22" 13,714 24' 5" 5,505 M MM45 TURIN MARATHON 21
96 92 BUTTINONI IVANO 1:32:21 4' 22" 13,707 24' 8" 5,513 M ? AVIS TREVIGLIO 1
97 300 MARRAS MAURIZIO 1:32:25 4' 22" 13,697 24' 12" 5,524 M MM35 SPORTS CLUB MELEGNANO 19
98 101 DE PICCOLI ERALDO 1:32:31 4' 23" 13,682 24' 18" 5,541 M MM40 G.P CODOGNO 82 26
99 285 CASAVECCHIA GIUSEPPE 1:32:42 4' 23" 13,655 24' 29" 5,572 M MM45 ASD GR. PODISTI ALBESI 22
100 97 VECCHIA ROBERTO 1:32:45 4' 23" 13,648 24' 32" 5,580 M MM45 LA RECASTELLO 23
101 100 SARNATARO UMBERTO 1:32:48 4' 23" 13,640 24' 35" 5,589 M MM35 US ACLI SCALO VOGHERA 20
102 350 COLAVECCHIO GIUSEPPE 1:32:55 4' 24" 13,623 24' 42" 5,608 M MM50 ATL.PARABIAGO 8
103 104 MILANO ANDREA 1:32:55 4' 24" 13,623 24' 42" 5,608 M MM45 A.S.D SESIA RUNNING VERCELLI 24
104 308 RENOSO GIANLUCA 1:32:58 4' 24" 13,616 24' 45" 5,617 M MM45 POLISPORTIVA DI.PO. 25
105 408 TRISOLINO FILIPPO 1:33:03 4' 24" 13,604 24' 50" 5,630 M MM40 RUNNING CENTER CLUB TORINO 27
106 425 STOPPA MICHELE 1:33:03 4' 24" 13,604 24' 50" 5,630 M MM35 GP AVIS VIGEVANO GRAVELLONA 21
107 17 MANCUSO TIZIANO 1:33:05 4' 24" 13,599 24' 52" 5,636 M MM35 A.S.D. GYM 90 CHIVASSO 22
108 164 BENZI CESARE 1:33:08 4' 24" 13,591 24' 55" 5,644 M MM40 SAI FR. BIANCHE ALESSANDRIA 28
109 2 UGHETTI GIANLUCA 1:33:10 4' 24" 13,587 24' 57" 5,650 M TM A.S.D. GYM 90 CHIVASSO 17
110 268 SANTORO STEFANO 1:33:11 4' 25" 13,584 24' 58" 5,653 M MM35 SAI FR. BIANCHE ALESSANDRIA 23
111 43 GALBIATI ANDREA 1:33:11 4' 25" 13,584 24' 58" 5,653 M MM35 G.S. TORBALL CLUB VERCELLI 24
112 370 VICENZI MAURO 1:33:23 4' 25" 13,555 25' 10" 5,686 M MM45 GP PONT ST.MARTIN 26
113 369 MAOLET MAURIZIO 1:33:26 4' 25" 13,548 25' 13" 5,694 M MM40 GP PONT ST.MARTIN 29
114 240 AMBROSONI RINALDO 1:33:29 4' 25" 13,541 25' 16" 5,702 M MM45 LIBERO 27
115 133 MARINEO MICHELE 1:33:37 4' 26" 13,521 25' 24" 5,724 M MM50 ATL. VERCELLI '78 9
116 429 RICCA ORAZIO 1:33:47 4' 26" 13,497 25' 34" 5,751 M MM40 US ACLI ATL S.MARCO 30
117 404 GARDIS PIERLUIGI 1:34:01 4' 27" 13,464 25' 48" 5,789 M MM35 GRUPPO AMICI PETTINENGO 25
118 251 PARLANTI MASSIMO 1:34:02 4' 27" 13,461 25' 49" 5,792 M MM50 G.S. MARCIATORI DESIO 10
119 64 PATTANO ALFREDO 1:34:11 4' 27" 13,440 25' 58" 5,817 M TM ATL.SAN MARCO BUSTO ARSIZIO 18
120 150 IRATO STEFANO 1:34:20 4' 28" 13,419 26' 7" 5,841 M MM45 ATL. ARCISATE 28
121 148 SPOTI FLAVIANO 1:34:21 4' 28" 13,416 26' 8" 5,844 M MM45 ATL. ARCISATE 29
122 73 DE ANGELI GIOVANNI 1:34:24 4' 28" 13,409 26' 11" 5,852 M MM50 LIBERO 11
123 76 BINAGHI MASSIMO 1:34:26 4' 28" 13,404 26' 13" 5,857 M MM35 AMATORI MASTER NOVARA 26
124 198 MAINELLI MASSIMO 1:34:26 4' 28" 13,404 26' 13" 5,857 M MM40 A.S.GAGLIANICO 1974 31
125 256 BILOTTI CLAUDIO 1:34:36 4' 29" 13,381 26' 23" 5,884 M MM40 G.S. MARCIATORI DESIO 32
126 343 LUCARELLI FAUSTO 1:34:48 4' 29" 13,353 26' 35" 5,916 M MM40 POL.S.ORSO 33
127 348 BOLCO MARCO 1:35:02 4' 30" 13,320 26' 49" 5,953 M TM LIBERO 19
128 20 GRASSANO STEFANO 1:35:16 4' 30" 13,287 27' 3" 5,990 M MM40 LIBERO 34
129 188 PRONE DARIO 1:35:21 4' 31" 13,276 27' 8" 6,003 M MM45 ATL.PINEROLO 30
130 130 MELAZZINI PAOLO 1:35:24 4' 31" 13,269 27' 11" 6,011 M MM45 2002 MARATHON CLUB 31
131 37 MARELLA PAOLO 1:35:31 4' 31" 13,252 27' 18" 6,030 M MM45 G.P.GORGONZOLA 88 32
132 410 MARINO SIMONE 1:35:40 4' 32" 13,232 27' 27" 6,053 M TM ASD GR. PODISTI ALBESI 20
133 242 TAFURI LUIGI 1:35:42 4' 32" 13,227 27' 29" 6,059 M MM45 AMATORI MASTER NOVARA 33
134 384 RICHETTA PAOLO 1:35:42 4' 32" 13,227 27' 29" 6,059 M MM40 ATL.SAVOIA 35
135 145 PREVOT ENRICO 1:35:45 4' 32" 13,220 27' 32" 6,067 M MM35 TURIN MARATHON 27
136 283 RAVIOLA EZIO 1:35:48 4' 32" 13,213 27' 35" 6,074 M MM40 ASD GR. PODISTI ALBESI 36
137 259 ZAPPA VITTORIO 1:35:49 4' 32" 13,211 27' 36" 6,077 M MM40 G.S. MARCIATORI DESIO 37
138 165 PECIS PAOLO 1:35:49 4' 32" 13,211 27' 36" 6,077 M MM40 SAI FR. BIANCHE ALESSANDRIA 38
139 78 LANZA WALTER 1:35:49 4' 32" 13,211 27' 36" 6,077 M MM55 A.S.D. PAVIGNANO 3
140 409 BAIMA FRANCESCO 1:36:04 4' 33" 13,176 27' 51" 6,116 M MM45 BALANGERO ATL. LEGGERA 34
141 115 SOTTINI FRANCESCO 1:36:20 4' 33" 13,140 28' 7" 6,158 M MM35 AMC 28
142 91 BERTOLUSSO LORENZO 1:36:24 4' 34" 13,131 28' 11" 6,168 M MM50 ASD DORATLETICA 12
143 392 DULIO ANDREA 1:36:28 4' 34" 13,122 28' 15" 6,178 M MM40 SOC.CANOTTIERI MILANO 39
144 87 TRIOLO PAOLO 1:36:33 4' 34" 13,111 28' 20" 6,191 M MM35 PODISTICA MEZZANESE 29
145 213 GAVINELLI ALDO 1:36:41 4' 34" 13,092 28' 28" 6,212 M MM45 EQUIPE OLEGGIO 2000 35
146 388 VERCELLI DANIELE 1:36:42 4' 35" 13,090 28' 29" 6,214 M TM G.S.CASTELLANIA 21
147 157 TROGLIO DARIO 1:36:43 4' 35" 13,088 28' 30" 6,217 M MM40 G.P.AVIS LOCATE TRIULZI 40
148 345 FARELLA FEDERICO 1:36:48 4' 35" 13,077 28' 35" 6,230 M TM ATLETICA TRECATE 22
149 333 CAMPI GOFFREDO 1:36:50 4' 35" 13,072 28' 37" 6,235 M MM50 ONDA VERDE ATL.TEAM 13
150 170 PIRROTTI FERDINANDO 1:36:56 4' 35" 13,059 28' 43" 6,250 M TM ROAD RUNNERS CLUB MILANO 23
151 330 PASTORINO MASSIMO 1:37:10 4' 36" 13,027 28' 57" 6,286 M MM40 ATL. VARAZZE 41
152 187 DE ROCCHI CARLO 1:37:18 4' 36" 13,009 29' 5" 6,306 M MM35 S.E.V.VALMADRERA 30
153 233 MIGLIARDI GIUSEPPE 1:37:19 4' 36" 13,007 29' 6" 6,309 M MM45 TEAM 2000 36
154 365 DI ROCCO ADOLFO 1:37:26 4' 37" 12,992 29' 13" 6,326 M MM65 ONDA VERDE ATL.TEAM 1
155 207 PALMA LORENZO 1:37:28 4' 37" 12,987 29' 15" 6,331 M MM45 G.P.MEZZANESE 37
156 93 MONFREDINI MARIO 1:37:40 4' 37" 12,961 29' 27" 6,362 M MM35 NUOVA ATLETICA 87 31
157 214 MAZZOLENI CARLO 1:37:42 4' 37" 12,956 29' 29" 6,367 M MM50 AVIS MARCIATORI MOZZATESI 14
158 234 BAROLI ANDREA 1:37:54 4' 38" 12,930 29' 41" 6,397 M MM35 ATL.TRECATE 32
159 112 SAPORITI MARIO 1:37:54 4' 38" 12,930 29' 41" 6,397 M MM35 ATL.TRECATE 33
160 269 FARAVELLI FEDERICO 1:38:06 4' 38" 12,903 29' 53" 6,427 M TM G.P.PASOTTI BRONI 24
161 342 BERTOLO STEFANO 1:38:19 4' 39" 12,875 30' 6" 6,459 M MM40 ATLETICA TRECATE 42
162 58 CRIVELLARI ONORIO 1:38:35 4' 40" 12,840 30' 22" 6,499 M MM50 CEDAS LANCIA VERRONE 15
163 141 BERTIN DANIELE 1:38:39 4' 40" 12,831 30' 26" 6,508 M MM35 SAI FR. BIANCHE ALESSANDRIA 34
164 51 PURICELLI PAOLA 1:38:41 4' 40" 12,827 30' 28" 6,513 F MF35 U.S. NERVIANESE 1919 2
165 135 BELLO AMALIO 1:38:46 4' 40" 12,816 30' 33" 6,526 M MM40 AMATORI MASTER NOVARA 43
166 71 BALDI MONICA 1:38:47 4' 40" 12,814 30' 34" 6,528 F TF AVIS VIGEVANO-GRAVELLONA 2
167 279 GIULIANO GIOVANNI 1:38:54 4' 41" 12,799 30' 41" 6,545 M ? A.S.D. SESIA RUNNING VERCELLI 2
168 110 ROSSI ALBERTO 1:38:57 4' 41" 12,793 30' 44" 6,553 M MM35 ATL.S.MARCO BUSTO ARSIZIO 35
169 421 CHIOVENDA GIANNI 1:38:59 4' 41" 12,788 30' 46" 6,558 M MM50 AZZURRA GARBAGNATE. 16
170 54 GALLI FABRIZIO 1:39:04 4' 41" 12,777 30' 51" 6,570 M MM45 LIBERO 38
171 372 INFEDE CRISTIAN 1:39:11 4' 42" 12,762 30' 58" 6,587 M TM GP RIVAROLO 1977 25
172 385 CALEGARI G.PAOLO 1:39:17 4' 42" 12,750 31' 4" 6,601 M MM50 ROAD RUNNERS CLUB MILANO 17
173 161 PALERMO ROCCO 1:39:21 4' 42" 12,741 31' 8" 6,611 M MM40 POL.ATL.PRESEZZO 44
174 335 QUAGLIOTTI MARCO 1:39:22 4' 42" 12,739 31' 9" 6,614 M MM40 TURIN MARATHON 45
175 239 ROTA FABRIZIO 1:39:24 4' 42" 12,735 31' 11" 6,618 M MM45 RUNNERS BERGAMO 39
176 72 ONDEI LUCIANO 1:39:27 4' 42" 12,728 31' 14" 6,626 M MM55 PODISTICA ARONA 4
177 10 PISANI FAUSTO 1:39:31 4' 43" 12,720 31' 18" 6,635 M MM40 G.S.GRAVELLONA VCO 46
178 47 AMIOTTI RUGGERO 1:39:39 4' 43" 12,703 31' 26" 6,655 M MM45 ATLETICA OVEST TICINO 40
179 250 BERGA PAOLO 1:39:44 4' 43" 12,692 31' 31" 6,667 M MM55 G.P TAPPOROSSO 5
180 231 CAVALLI PAOLO 1:39:53 4' 44" 12,673 31' 40" 6,689 M MM40 ATL.VIRTUS SENAGO 47
181 405 GOLLER GIOVANNA 1:39:56 4' 44" 12,667 31' 43" 6,696 F TF GS SPLENDOR COSSATO 3
182 177 NOMINELLI RENATO 1:39:59 4' 44" 12,660 31' 46" 6,703 M MM50 LIBERO 18
183 14 QUADRIO PIERLUIGI 1:40:04 4' 44" 12,650 31' 51" 6,715 M MM55 ROAD RUNNERS CLUB MILANO 6
184 179 REGALIA ROBERTO 1:40:06 4' 44" 12,646 31' 53" 6,720 M MM40 SVP EVENTI 48
185 356 PALERMO GUSEPPE 1:40:18 4' 45" 12,620 32' 5" 6,748 M MM35 AMATORI MASTER NOVARA 36
186 117 STOLFA GIANFRANCO 1:40:20 4' 45" 12,616 32' 7" 6,753 M MM35 TURIN MARATHON 37
187 243 BRUSTO GIANLUIGI 1:40:22 4' 45" 12,612 32' 9" 6,758 M MM40 ATL. VERCELLI '78 49
188 289 BALSAMO SECONDO 1:40:28 4' 45" 12,599 32' 15" 6,772 M MM50 ASD GR. PODISTI ALBESI 19
189 291 GALLIANO GUIDO 1:40:29 4' 45" 12,597 32' 16" 6,775 M MM55 ASD GR. PODISTI ALBESI 7
190 376 MIGNOGNA ALDO 1:40:45 4' 46" 12,564 32' 32" 6,812 M MM40 POD.REBA 50
191 287 PALMITESTA ANGELO 1:40:47 4' 46" 12,560 32' 34" 6,817 M MM45 ASD GR. PODISTI ALBESI 41
192 393 ZUMAGLINO RAFFAELLA 1:40:48 4' 46" 12,558 32' 35" 6,820 F TF SOC.CANOTTIERI MILANO 4
193 206 MARINARI STEFANO 1:40:50 4' 46" 12,554 32' 37" 6,824 M MM35 ATL. VERCELLI '78 38
194 154 CIAMBELLI FABRIZIO 1:40:50 4' 46" 12,554 32' 37" 6,824 M MM45 ATL.S.MARCO U.S.ACLI 42
195 156 CAVANINI MAURO 1:41:10 4' 47" 12,512 32' 57" 6,871 M MM40 G.P.AVIS LOCATE TRIULZI 51
196 205 SALUTA GIONNI 1:41:30 4' 48" 12,471 33' 17" 6,918 M MM50 G.S. SALUGGIA 20
197 52 RICCARDI CLAUDIO 1:41:30 4' 48" 12,471 33' 17" 6,918 M MM35 LIBERO 39
198 194 PASQUINO AURORA 1:41:41 4' 49" 12,449 33' 28" 6,944 F MF40 G.S.R.FERRERO 1
199 210 ATZEI MARCO 1:41:41 4' 49" 12,449 33' 28" 6,944 M TM CANAVESE 2005 26
200 219 BORGHI CESARE 1:41:42 4' 49" 12,447 33' 29" 6,946 M MM40 AVIS MARCIATORI MOZZATESI 52
201 318 PATRIARCA ETTORE 1:41:42 4' 49" 12,447 33' 29" 6,946 M MM45 A.S.GAGLIANICO 1974 43
202 319 SCHIAVO CIRO 1:41:57 4' 49" 12,416 33' 44" 6,981 M MM45 ASD GR. PODISTI ALBESI 44
203 401 IANNONE LUIGI 1:42:18 4' 50" 12,374 34' 5" 7,029 M MM35 LIBERO 40
204 312 CABRINO IVO 1:42:21 4' 51" 12,368 34' 8" 7,036 M MM35 U.S.SANFRONT 41
205 361 LIPPI ROBERTO 1:42:22 4' 51" 12,366 34' 9" 7,038 M MM40 LIBERO 53
206 46 BELLETTI DOMENICO 1:42:23 4' 51" 12,364 34' 10" 7,040 M MM45 LIBERO 45
207 398 DEINHARDT REINHOLD 1:42:25 4' 51" 12,360 34' 12" 7,045 M MM45 LIBERO 46
208 25 FRANCESE ROBERTO 1:42:27 4' 51" 12,355 34' 14" 7,049 M MM45 A.S.D. SESIA RUNNING VERCELLI 47
209 23 CAVALLERO GIANFELICE 1:42:30 4' 51" 12,349 34' 17" 7,056 M MM55 A.S.D. SESIA RUNNING VERCELLI 8
210 280 VANDONI LUCA 1:42:35 4' 51" 12,339 34' 22" 7,068 M MM45 EQUIPE OLEGGIO 2000 48
211 56 VOLPI MARCO 1:42:36 4' 51" 12,337 34' 23" 7,070 M TM TURIN MARATHON 27
212 218 DONATO MARIO 1:42:36 4' 51" 12,337 34' 23" 7,070 M MM65 ASD CEDAS LANCIA 2
213 22 BRUGNETTA GABRIELE 1:42:51 4' 52" 12,307 34' 38" 7,104 M MM45 A.S.D. SESIA RUNNING VERCELLI 49
214 131 FIPILLI GIOVANNI LUIGI 1:42:57 4' 52" 12,295 34' 44" 7,118 M MM55 ATL. PARABIAGO 9
215 296 COZZI PIERLUIGI 1:42:57 4' 52" 12,295 34' 44" 7,118 M MM55 U.S. NERVIANESE 1919 10
216 36 AMMESSO ETTORE 1:42:57 4' 52" 12,295 34' 44" 7,118 M MM50 ATLETICA VIGNATE 21
217 295 NASO DIEGO 1:43:04 4' 53" 12,282 34' 51" 7,134 M MM45 ASD GR. PODISTI ALBESI 50
218 434 RINARELLI MICHELE 1:43:11 4' 53" 12,268 34' 58" 7,149 M MM35 CGR 42
219 271 ROI CLAUDIO 1:43:18 4' 53" 12,254 35' 5" 7,165 M MM45 CANAVESE 2005 51
220 336 DUCA SILVIA 1:43:29 4' 54" 12,232 35' 16" 7,190 F TF LIBERO 5
221 152 NIZZOLINI ALBERTO 1:43:34 4' 54" 12,222 35' 21" 7,201 M MM45 G.S.GRAVELLONA VCO 52
222 149 RUSSO ELIO 1:43:36 4' 54" 12,218 35' 23" 7,205 M MM55 ATL. ARCISATE 11
223 134 CAVALLINI GRAZIANO 1:43:50 4' 55" 12,191 35' 37" 7,237 M MM35 LIBERO 43
224 430 PRINA ENRICO 1:43:51 4' 55" 12,189 35' 38" 7,239 M MM40 CEDAS LANCIA VERRONE 54
225 124 TORRE MASSIMO 1:43:52 4' 55" 12,187 35' 39" 7,241 M MM40 GP AVIS PAVIA 55
226 273 BERTODO ALFIO 1:44:16 4' 56" 12,140 36' 3" 7,294 M MM55 CANAVESE 2005 12
227 41 GARAVAGLIA MARCO 1:44:32 4' 57" 12,109 36' 19" 7,329 M TM ATL.SAN MARCO BUSTO ARSIZIO 28
228 30 CIANCIOLO ANTONIO 1:44:36 4' 57" 12,102 36' 23" 7,338 M MM40 A.S.D. SESIA RUNNING VERCELLI 56
229 142 CARENA ALESSANDRO 1:44:38 4' 57" 12,098 36' 25" 7,343 M MM35 LIBERO 44
230 223 BOTTERO LORENZO 1:44:41 4' 57" 12,092 36' 28" 7,349 M MM35 RUNNERS 06 45
231 189 FORNERON MARZIA BARBARA 1:44:46 4' 57" 12,082 36' 33" 7,360 F MF35 ATL.PINEROLO 3
232 28 SANI LUCA 1:44:51 4' 58" 12,073 36' 38" 7,371 M MM35 A.S.D. SESIA RUNNING VERCELLI 46
233 270 PARLAPIANO EMILIO 1:45:03 4' 58" 12,050 36' 50" 7,397 M MM50 G.S.CASTELLANIA 22
234 7 CARNEVALE CARLINO MASSIMO 1:45:06 4' 58" 12,044 36' 53" 7,404 M TM AVIS VIGEVANO-GRAVELLONA 29
235 96 ROMAGNONI MATTEO 1:45:10 4' 59" 12,036 36' 57" 7,412 M MM35 LIBERO 47
236 275 FERRARIS FRANCO 1:45:29 4' 59" 12,000 37' 16" 7,453 M MM50 G.S.ERMENEGILDO ZEGNA 23
237 191 FERRARO FOGNO FEDERICO 1:45:29 4' 59" 12,000 37' 16" 7,453 M MM40 G.S.ERMENEGILDO ZEGNA 57
238 221 SANTORSOLA FRANCESCO 1:45:38 5' 0" 11,983 37' 25" 7,473 M MM50 ATL.BALANGERO 24
239 105 GIACALONE MATTEO 1:45:39 5' 0" 11,981 37' 26" 7,475 M MM45 ATL AMBROSIANA 53
240 195 RONZANO MAURO 1:45:58 5' 1" 11,945 37' 45" 7,516 M MM40 LIBERO 58
241 211 DUELLI COSTANTINO 1:45:59 5' 1" 11,944 37' 46" 7,518 M MM55 G.S.LACECCA BORGOMANERO 13
242 364 CAPOROSSI SANDRO 1:46:00 5' 1" 11,942 37' 47" 7,520 M MM55 LIBERO 14
243 132 VERGNA RICCARDO 1:46:06 5' 1" 11,930 37' 53" 7,533 M MM40 ATL. CINISELLO 59
244 311 SOLDATI FABRIZIO 1:46:10 5' 1" 11,923 37' 57" 7,541 M MM40 U.S.SANFRONT 60
245 200 CARAMELLA PIERANGELO 1:46:11 5' 1" 11,921 37' 58" 7,543 M MM55 G.S.GRAVELLONA VCO 15
246 68 BOSC DELCISO 1:46:17 5' 2" 11,910 38' 4" 7,556 M MM40 ATLETICA ZERBION 61
247 366 BALZARETTI GABRIELE 1:46:21 5' 2" 11,902 38' 8" 7,565 M MM45 LIBERO 54
248 49 TEDOLDI ARTURO 1:46:25 5' 2" 11,895 38' 12" 7,573 M MM35 G.S. MORBEGNO 48
249 276 BULGHERONI PAOLO 1:46:26 5' 2" 11,893 38' 13" 7,575 M MM55 A.S.D. RUNNER VARESE 16
250 326 TIDDIA STEFANO 1:46:30 5' 2" 11,886 38' 17" 7,584 M MM35 APD PIETRO MICCA 49
251 66 BONANNO CLAUDIO 1:46:31 5' 2" 11,884 38' 18" 7,586 M MM35 LIBERO 50
252 292 EMMA ROCCO 1:46:34 5' 3" 11,878 38' 21" 7,592 M MM60 ASD GR. PODISTI ALBESI 1
253 298 SZEGO ALESSANDRA 1:46:36 5' 3" 11,874 38' 23" 7,596 F MF40 ATL. VERCELLI '78 2
254 297 SZEGO LUDOVICO 1:46:50 5' 3" 11,849 38' 37" 7,626 M MM60 ATL. VERCELLI '78 2
255 169 VOLPONI FABIO 1:46:52 5' 3" 11,845 38' 39" 7,630 M TM LIBERO 30
256 107 DE LUIGI ALESSANDRO 1:47:01 5' 4" 11,828 38' 48" 7,649 M MM35 TURIN MARATHON 51
257 158 ALLIEVI ENRICO 1:47:06 5' 4" 11,819 38' 53" 7,659 M MM50 G.P.AVIS LOCATE TRIULZI 25
258 123 VANETTI ANNA 1:47:06 5' 4" 11,819 38' 53" 7,659 F MF35 VA.LUINO VERBANO TRIATHLON 4
259 310 CANETTI DANIELE 1:47:15 5' 5" 11,803 39' 2" 7,678 M MM35 U.S.SANFRONT 52
260 120 TOTARO CLAUDIO 1:47:26 5' 5" 11,782 39' 13" 7,701 M MM50 AZZURRA GARBAGNATE M.SE 26
261 359 FRESCHI CLAUDIO 1:47:29 5' 5" 11,777 39' 16" 7,707 M MM40 ROAD RUNNERS CLUB MILANO 62
262 317 BARTUCCA GREGORIO 1:47:31 5' 5" 11,773 39' 18" 7,711 M MM55 A.S.GAGLIANICO 1974 17
263 257 CANDURRA FRANCESCO 1:47:39 5' 6" 11,759 39' 26" 7,728 M MM55 G.S. MARCIATORI DESIO 18
264 79 SICHEL ENZO 1:47:47 5' 6" 11,744 39' 34" 7,745 M MM50 LIBERO 27
265 306 CACCIATI ALDO 1:47:51 5' 6" 11,737 39' 38" 7,753 M MM45 CEDAS LANCIA VERRONE 55
266 163 MARGARA GUIDO 1:47:59 5' 7" 11,722 39' 46" 7,769 M TM LIBERO 31
267 341 ROSSI MASSIMILIANO 1:48:14 5' 7" 11,695 40' 1" 7,800 M MM35 ROAD RUNNERS CLUB MILANO 53
268 5 FERRARIS GIOVANNI 1:48:26 5' 8" 11,674 40' 13" 7,825 M MM60 ATLETICA VERCELLI 78 3
269 174 PALERMO FRANCO 1:48:40 5' 9" 11,649 40' 27" 7,853 M MM40 A.M.C.R.CUREGGIO 63
270 155 GHI ANDREA 1:48:44 5' 9" 11,642 40' 31" 7,861 M MM40 GS VITTORIO ALFIERI ASTI 64
271 88 FANTASIA NICOLA 1:48:55 5' 9" 11,622 40' 42" 7,884 M MM40 ASD CEDAS LANCIA 65
272 419 GAUDENZI LUCIANO 1:48:59 5' 9" 11,615 40' 46" 7,892 M MM70 TURIN MARATHON 1
273 288 ABBRACCHIO SILVANO 1:49:01 5' 10" 11,611 40' 48" 7,896 M MM50 ASD GR. PODISTI ALBESI 28
274 61 UGAZIO PIERGIUSEPPE 1:49:09 5' 10" 11,597 40' 56" 7,912 M MM55 CEDAS LANCIA VERRONE 19
275 201 BATTAGGIA GIANLUCA 1:49:10 5' 10" 11,595 40' 57" 7,914 M MM40 AVIS VIGEVANO-GRAVELLONA 66
276 108 CHERUBINI PAOLA 1:49:15 5' 10" 11,586 41' 2" 7,924 F MF40 TURIN MARATHON 3
277 229 CASSANO ROSARIO 1:49:36 5' 11" 11,549 41' 23" 7,966 M MM45 TURIN MARATHON 56
278 324 FINOTELLO SILVANO 1:49:37 5' 11" 11,548 41' 24" 7,968 M MM45 APD PIETRO MICCA 57
279 18 CECILIA MASSIMILIANO 1:49:39 5' 11" 11,544 41' 26" 7,972 M MM35 LEPROTTI DI VILLA ADA 54
280 29 SESTO COSTANTINO 1:49:46 5' 12" 11,532 41' 33" 7,986 M MM45 A.S.D. SESIA RUNNING VERCELLI 58
281 232 PAOLINI ENRICO 1:49:52 5' 12" 11,521 41' 39" 7,998 M MM55 LIBERO 20
282 420 MARINO ENZO 1:50:05 5' 13" 11,499 41' 52" 8,024 M MM55 ATL LESSONA 21
283 1 ANDREOTTI OSCAR 1:50:12 5' 13" 11,487 41' 59" 8,037 M MM50 ATLETICA VERCELLI 78 29
284 102 MOLA DARIO 1:50:25 5' 14" 11,464 42' 12" 8,063 M TM ATL. PONT DONNAS 32
285 111 COVIZZI GAETANO 1:50:26 5' 14" 11,462 42' 13" 8,065 M MM40 ATL.S.MARCO BUSTO ARSIZIO 67
286 391 CABRINI FRANCO 1:50:28 5' 14" 11,459 42' 15" 8,069 M MM55 SOC.CANOTTIERI MILANO 22
287 362 LA NOTTE FRANCESCO 1:50:37 5' 14" 11,443 42' 24" 8,087 M MM35 G.P.LOGRATO 55
288 202 TOSELLO CRISTINA 1:50:39 5' 14" 11,440 42' 26" 8,091 F MF35 AVIS VIGEVANO-GRAVELLONA 5
289 184 SANTINATO FABIO 1:50:46 5' 15" 11,428 42' 33" 8,104 M MM40 AMATORI MASTER NOVARA 68
290 415 CAMPAGNA PAOLO 1:51:00 5' 15" 11,404 42' 47" 8,132 M MM35 ATL. VERCELLI '78 56
291 147 RAMUNDO GIUSEPPE 1:51:08 5' 16" 11,390 42' 55" 8,147 M MM40 ATL. ARCISATE 69
292 304 FAVARO ANDREA 1:51:17 5' 16" 11,375 43' 4" 8,165 M MM35 UNIONE GIOVANE BIELLA 57
293 316 CASTELLETTI CARLO 1:51:21 5' 16" 11,368 43' 8" 8,172 M MM55 A.S.GAGLIANICO 1974 23
294 69 GALIAZZI SERGIO 1:51:22 5' 16" 11,366 43' 9" 8,174 M MM55 ATL.SAN MARCO BUSTO ARSIZIO 24
295 334 DE NOIA GIUSEPPE 1:51:29 5' 17" 11,354 43' 16" 8,188 M MM40 TURIN MARATHON 70
296 65 OGGERO BARBARA 1:51:31 5' 17" 11,351 43' 18" 8,192 F MF35 LIBERO 6
297 137 CREMONA OMAR 1:51:36 5' 17" 11,342 43' 23" 8,201 M TM G.S.MARATHON MAX 33
298 227 COCHIS PIER LUIGI 1:51:37 5' 17" 11,341 43' 24" 8,203 M MM45 LIBERO 59
299 98 MAGNI ROBERTO 1:51:38 5' 17" 11,339 43' 25" 8,205 M MM50 ATLETICA CINISELLO 30
300 114 BANCHI RENATO 1:51:39 5' 17" 11,337 43' 26" 8,207 M MM35 ATL. CINISELLO 58
301 274 ROSSI NORBERTO 1:51:50 5' 18" 11,319 43' 37" 8,228 M TM LIBERO 34
302 197 GRASSI ALESSANDRA 1:52:00 5' 18" 11,302 43' 47" 8,247 F MF40 A.S.GAGLIANICO 1974 4
303 50 GATTONI GIANDOMENICO 1:52:06 5' 18" 11,292 43' 53" 8,259 M MM45 ATLETICA PALZOLA 60
304 162 TOVAGLIERI ANGELO 1:52:12 5' 19" 11,282 43' 59" 8,270 M MM50 ATL. S.MARCO BUSTO ARSIZIO 31
305 293 SULIS ELISABETTA 1:52:14 5' 19" 11,278 44' 1" 8,274 F MF50 ASD GR. PODISTI ALBESI 1
306 31 DANIELI STEFANO 1:52:15 5' 19" 11,277 44' 2" 8,276 M MM35 A.S.D. SESIA RUNNING VERCELLI 59
307 416 MARRAS SERGIO 1:52:23 5' 19" 11,263 44' 10" 8,291 M MM50 AS GAGLIANICO 32
308 381 ORLANDO MARIA 1:52:31 5' 19" 11,250 44' 18" 8,306 F MF35 P.A.M.MONDOVý 7
309 129 CERESINI ADALBERTO 1:52:40 5' 20" 11,235 44' 27" 8,323 M MM50 ATL.S.MARCO BUSTO ARSIZIO 33
310 74 RUSTICO MARCO 1:52:52 5' 20" 11,215 44' 39" 8,346 M MM55 JUNIOR ATLETICA CASALE M.TO 25
311 121 MIGLIORINI VALERIO 1:53:03 5' 21" 11,197 44' 50" 8,367 M MM45 LIBERO 61
312 19 RONDOLOTTO GIORGIO 1:53:18 5' 22" 11,172 45' 5" 8,395 M MM60 UNIONE GIOVANE BIELLA 4
313 261 CARRA' CATERINA 1:53:30 5' 22" 11,153 45' 17" 8,417 F MF40 SAI FR. BIANCHE ALESSANDRIA 5
314 151 DI GIOVINE ANTONIO 1:53:43 5' 23" 11,131 45' 30" 8,441 M MM35 G.S.GRAVELLONA VCO 60
315 160 CLERICI RENATO 1:53:49 5' 23" 11,122 45' 36" 8,452 M MM55 G.P.AVIS LOCATE TRIULZI 26
316 260 BARBIERI ANTONELLA 1:54:02 5' 24" 11,100 45' 49" 8,476 F MF40 SANT'ORSO 6
317 53 ANDREETTA BIXIO 1:54:13 5' 24" 11,083 46' 8,497 M MM45 LIBERO 62
318 85 CAROLLO MICHELE 1:54:19 5' 25" 11,073 46' 6" 8,508 M TM TURIN MARATHON 35
319 346 BERTONE PAOLO 1:54:24 5' 25" 11,065 46' 11" 8,517 M MM50 ATLETICA GALLIATE 34
320 75 CERRONE SERGIO 1:54:43 5' 26" 11,034 46' 30" 8,552 M MM50 PIETRO MICCA BIELLA 35
321 118 DE CARLI LUCA 1:55:07 5' 27" 10,996 46' 54" 8,595 M MM40 ATLETICA EST 71
322 414 BIANCHI MAURO 1:55:10 5' 27" 10,991 46' 57" 8,601 M MM45 MARCIATORI MOZZATESI 63
323 412 MERCANDO SERGIO 1:55:14 5' 27" 10,985 47' 1" 8,608 M MM45 C.S.C.AMICI DEL CICLO SE.POD. 64
324 246 ZELLA GIOVANNI 1:55:19 5' 27" 10,977 47' 6" 8,617 M MM40 LIBERO 72
325 262 ZARAMELLA VALENTINA 1:55:22 5' 28" 10,972 47' 9" 8,622 F TF SAI FR. BIANCHE ALESSANDRIA 6
326 383 BONAFE' DAVIDE 1:55:25 5' 28" 10,967 47' 12" 8,628 M MM40 SAI FRECCE BIANCHE 73
327 394 BESTA FABIO 1:55:28 5' 28" 10,963 47' 15" 8,633 M MM45 LIBERO 65
328 119 ZANARDO MICHELA 1:55:34 5' 28" 10,953 47' 21" 8,644 F MF35 ATLETICA 99 VITTUONE 8
329 241 CAVALLARO ROSARIO 1:55:42 5' 29" 10,941 47' 29" 8,658 M TM LIBERO 36
330 153 DI SANTO ALESSANDRO 1:56:09 5' 30" 10,898 47' 56" 8,706 M TM TURIN MARATHON 37
331 406 DEANGELIS ANDREA 1:56:20 5' 30" 10,881 48' 7" 8,726 M MM40 ATL. VERCELLI '78 74
332 377 MARCHESE MARCO 1:56:36 5' 31" 10,856 48' 23" 8,754 M TM ROAD RUNNERS CLUB MILANO 38
333 325 MERLO CRISTINA 1:56:51 5' 32" 10,833 48' 38" 8,781 F MF40 APD PIETRO MICCA 7
334 367 GALLO CARMINE 1:56:55 5' 32" 10,827 48' 42" 8,788 M MM45 AZZURRA 66
335 15 BACCHIO LEONARDO 1:56:56 5' 32" 10,825 48' 43" 8,789 M MM45 G.P.RIVAROLO 1977 67
336 62 FAVA FRANCESCO 1:57:09 5' 33" 10,805 48' 56" 8,812 M MM55 CEDAS LANCIA VERRONE 27
337 32 VARESE MASSIMO 1:57:09 5' 33" 10,805 48' 56" 8,812 M MM50 A.S.D. SESIA RUNNING VERCELLI 36
338 340 RICCARDI ROCCO 1:57:17 5' 33" 10,793 49' 4" 8,826 M MM70 CEDAS LANCIA VERRONE 2
339 331 SANTI ELISA 1:57:32 5' 34" 10,770 49' 19" 8,852 F MF50 ONDA VERDE ATL.TEAM 2
340 272 CASSETTA RENATO 1:57:43 5' 34" 10,753 49' 30" 8,871 M MM70 CANAVESE 2005 3
341 245 CAREGARO CLAUDIO 1:57:52 5' 35" 10,739 49' 39" 8,887 M MM50 ATL. S.MARCO BUSTO ARSIZIO 37
342 360 BISOGLIO MAURIZIO 1:58:11 5' 36" 10,711 49' 58" 8,920 M MM50 AMATORI MASTER NOVARA 38
343 303 RIZZARDI ROBERTO 1:58:18 5' 36" 10,700 50' 5" 8,932 M TM LIBERO 39
344 185 TOFFANIN SERGIO 1:59:44 5' 40" 10,572 51' 31" 9,077 M MM40 LIBERO 75
345 136 MOSCA OSCAR 1:59:48 5' 40" 10,566 51' 35" 9,084 M TM G.S.MARATHON MAX 40
346 183 MORA MARCO 1:59:57 5' 41" 10,553 51' 44" 9,099 M MM50 G.P. CASALESE 39
347 264 RUSSO VALENTINA 1:59:57 5' 41" 10,553 51' 44" 9,099 F TF SAI FR. BIANCHE ALESSANDRIA 7
348 181 PISANI ITALO 1:59:58 5' 41" 10,551 51' 45" 9,101 M MM45 LIBERO 68
349 84 POCHETTINO PAOLO 2:00:06 5' 41" 10,540 51' 53" 9,114 M MM55 ATLETICA AMBROSIANA 28
350 140 REMIGIO DAVIDE 2:00:08 5' 41" 10,537 51' 55" 9,117 M MM40 LIBERO 76
351 220 TROTTI AGOSTINO 2:00:35 5' 42" 10,497 52' 22" 9,162 M MM40 AVIS MARCIATORI MOZZATESI 77
352 282 DEL CURTO MAURIZIO 2:00:40 5' 43" 10,490 52' 27" 9,170 M MM50 LIBERO 40
353 222 CRISTOFFANINI GIOVANNI 2:00:57 5' 43" 10,466 52' 44" 9,198 M MM50 RUNNERS 06 41
354 39 BRAVETTI SILVIA 2:01:26 5' 45" 10,424 53' 13" 9,246 F TF LIBERO 8
355 407 CORVETTI ANDREA 2:01:32 5' 45" 10,415 53' 19" 9,255 M MM70 ATL. VERCELLI '78 4
356 48 LEPERA GIUSEPPE 2:01:48 5' 46" 10,393 53' 35" 9,281 M MM35 G.S. MORBEGNO 61
357 215 SAVINO MAURIZIO 2:02:11 5' 47" 10,360 53' 58" 9,318 M MM50 ATL. VERCELLI '78 42
358 436 SCHIAVELLA MARINA 2:02:12 5' 47" 10,359 53' 59" 9,320 F MF40 APROCIS RUNNER TEAM 8
359 83 CRIVELLARI SILVIO 2:02:13 5' 47" 10,357 54' 9,321 M MM40 TURIN MARATHON 78
360 159 ARENA ANTONIO 2:02:17 5' 47" 10,352 54' 4" 9,328 M MM50 G.P.AVIS LOCATE TRIULZI 43
361 302 FIORAVANTI MARCO 2:02:32 5' 48" 10,330 54' 19" 9,352 M MM40 TURIN MARATHON 79
362 40 BATTISTELLA LUCA 2:02:37 5' 48" 10,323 54' 24" 9,360 M MM35 LIBERO 62
363 172 BONIARDI MARCO 2:02:41 5' 48" 10,318 54' 28" 9,366 M MM55 AMICI DELLO SPORT BRIOSCO 29
364 389 UBERTALLI DANIELA 2:02:50 5' 49" 10,305 54' 37" 9,381 F MF40 GS EMENEGILDO ZEGNA 9
365 63 GALA DONATO 2:03:39 5' 51" 10,237 55' 26" 9,458 M TM RUNNER CENTER CLUB TORINO 41
366 44 SCIANCA MARCO 2:03:46 5' 51" 10,227 55' 33" 9,469 M MM45 ATL. LAMBRO MILANO 69
367 238 MUSAIO LUISA 2:04:01 5' 52" 10,207 55' 48" 9,492 F MF45 RUNNERS BERGAMO 2
368 6 MONTELLI GIANFRANCO 2:04:09 5' 53" 10,196 55' 56" 9,505 M MM60 G.S. TRIONFO LIGURE 5
369 70 RAVASIO FABIO 2:04:15 5' 53" 10,188 56' 2" 9,514 M MM35 ATLETICA GALLIATE 63
370 216 CORRADINO PAOLO 2:05:53 5' 58" 10,056 57' 40" 9,664 M MM35 ATL. VERCELLI '78 64
371 294 COSTA GRAZIELLA 2:05:57 5' 58" 10,050 57' 44" 9,671 F MF55 ASD GR. PODISTI ALBESI 1
372 13 CORNA GIANFRANCO 2:06:12 5' 58" 10,030 57' 59" 9,693 M MM70 ATL.SAN MARCO BUSTO ARSIZIO 5
373 21 BERTOLA ANNAMARIA 2:06:28 5' 59" 10,009 58' 15" 9,717 F MF50 A.S.D. SESIA RUNNING VERCELLI 3
374 167 VECCHIE' VALERIO 2:07:28 6' 2" 9,931 59' 15" 9,806 M MM50 ATLETICA CUMIANA 44
375 180 BALLETTI GOFFREDO 2:08:40 6' 5" 9,838 1h 27" 9,912 M MM70 ATLETICA EST TORINO 6
376 82 PIOVANO LAURA 2:08:57 6' 6" 9,816 1h 44" 9,936 F MF35 TURIN MARATHON 9
377 373 CREMONESE CINZIA 2:09:58 6' 9" 9,740 1h 1' 45" 10,024 F MF40 GS EMENEGILDO ZEGNA 10
378 81 VILLANI ELENA 2:10:17 6' 10" 9,716 1h 2' 4" 10,051 F MF35 A.S.D. RUNNER VARESE 10
379 357 GREPPI PAOLO 2:10:44 6' 11" 9,682 1h 2' 31" 10,089 M MM35 LIBERO 65
380 190 GALIMBERTI FULVIO 2:10:46 6' 11" 9,680 1h 2' 33" 10,091 M MM45 RUNNERS VARESE 70
381 253 DODERO MILENA 2:10:55 6' 12" 9,669 1h 2' 42" 10,104 F MF40 G.S. MARCIATORI DESIO 11
382 428 PIO ALBERTO 2:10:58 6' 12" 9,665 1h 2' 45" 10,108 M MM55 ATL VERCELLI 78 30
383 45 SCIANCA MAURO 2:11:03 6' 12" 9,659 1h 2' 50" 10,115 M MM50 ATL. LAMBRO MILANO 45
384 3 VALLI CARMELA 2:11:26 6' 13" 9,631 1h 3' 13" 10,147 F MF40 PODISTICA 2005 12
385 26 GUALDI BARBARA 2:11:26 6' 13" 9,631 1h 3' 13" 10,147 F MF35 A.S.D. SESIA RUNNING VERCELLI 11
386 103 SORRENTINO ANNA 2:12:28 6' 16" 9,556 1h 4' 15" 10,233 F TF ATL. PONT DONNAS 9
387 411 GIANNINI PAOLA 2:12:35 6' 17" 9,547 1h 4' 22" 10,242 F MF50 MARENGO MARATHON 4
388 358 COMMUNARA CINZIA 2:12:41 6' 17" 9,540 1h 4' 28" 10,250 F MF40 GSA POLLONE 13
389 426 ZANOVELLO NATALE 2:14:40 6' 22" 9,400 1h 6' 27" 10,410 M MM50 CEDAS LANCIA VERRONE 46
390 427 MARIAN DANIELA 2:14:40 6' 22" 9,400 1h 6' 27" 10,410 F MF CEDAS LANCIA VERRONE 1
391 228 MANZINI PAOLO 2:16:39 6' 28" 9,263 1h 8' 26" 10,565 M MM40 LIBERO 80
392 86 BROGGI ALESSANDRA 2:17:08 6' 30" 9,231 1h 8' 55" 10,602 F TF PODISTICA MEZZANESE 10
393 307 SAVINO GIULIA 2:17:46 6' 31" 9,188 1h 9' 33" 10,651 F TF LIBERO 11
394 12 PRELLA LETIZIA 2:18:06 6' 32" 9,166 1h 9' 53" 10,676 F MF40 GAC PETTINENGO 14
395 89 MARTIGNANI ANTONELLA 2:19:43 6' 37" 9,060 1h 11' 30" 10,796 F MF45 ASD CEDAS LANCIA 3
396 4 MARZOLA EZIO 2:19:56 6' 37" 9,046 1h 11' 43" 10,812 M MM60 A.S.D. ZELOFORAMAGNO 6
397 301 COMPARELLI ETTORE 2:22:03 6' 43" 8,911 1h 13' 50" 10,966 M MM50 ROAD RUNNERS CLUB MILANO 47
398 417 VIAZZO FRANCESCO 2:23:02 6' 46" 8,850 1h 14' 49" 11,035 M MM45 GP BORGOVERCELLI 71
399 59 GILLIO LORELLA 2:24:01 6' 49" 8,789 1h 15' 48" 11,104 F MF45 CEDAS LANCIA VERRONE 4
400 244 VANETTI ALBERTO 2:25:05 6' 52" 8,725 1h 16' 52" 11,177 M MM50 ATL. S.MARCO BUSTO ARSIZIO 48